createdAt,value
2023-03-13T00:02:22.662Z,68.22
2023-03-13T00:17:24.485Z,69.98
2023-03-13T00:32:26.346Z,70.50
2023-03-13T00:47:28.174Z,71.54
2023-03-13T01:02:29.974Z,74.34
2023-03-13T01:17:31.824Z,70.99
2023-03-13T01:32:34.085Z,75.82
2023-03-13T01:47:35.905Z,73.89
2023-03-13T02:02:40.650Z,72.60
2023-03-13T02:17:43.221Z,74.89
2023-03-13T02:32:46.268Z,76.03
2023-03-13T02:47:48.094Z,77.37
2023-03-13T03:02:49.803Z,77.36
2023-03-13T03:17:51.415Z,79.76
2023-03-13T03:32:53.381Z,81.04
2023-03-13T03:47:55.264Z,80.36
2023-03-13T04:02:57.014Z,79.74
2023-03-13T04:17:58.768Z,81.73
2023-03-13T04:33:00.526Z,83.28
2023-03-13T04:48:02.259Z,85.03
2023-03-13T05:03:05.094Z,83.83
2023-03-13T05:18:06.824Z,84.02
2023-03-13T05:33:08.475Z,83.31
2023-03-13T05:48:10.230Z,82.55
2023-03-13T06:03:14.233Z,81.40
2023-03-13T06:18:16.070Z,80.84
2023-03-13T06:33:17.769Z,76.45
2023-03-13T06:48:20.324Z,75.27
2023-03-13T07:03:21.969Z,73.22
2023-03-13T07:18:23.862Z,70.79
2023-03-13T07:33:25.655Z,68.45
2023-03-13T07:48:38.909Z,66.40
2023-03-13T08:03:40.827Z,66.09
2023-03-13T08:18:45.524Z,64.70
2023-03-13T08:33:48.404Z,64.10
2023-03-13T08:48:54.746Z,62.87
2023-03-13T09:03:57.298Z,63.73
2023-03-13T09:19:00.271Z,63.16
2023-03-13T09:34:02.218Z,63.63
2023-03-13T09:49:38.353Z,60.85
2023-03-13T10:04:49.363Z,61.33
2023-03-13T10:19:58.806Z,60.92
2023-03-13T10:35:03.211Z,60.13
2023-03-13T10:50:05.437Z,58.63
2023-03-13T11:05:25.538Z,58.47
2023-03-13T11:20:39.856Z,56.65
2023-03-13T11:35:54.544Z,59.86
2023-03-13T11:51:13.385Z,55.02
2023-03-13T12:06:34.373Z,52.06
2023-03-13T12:21:42.934Z,55.12
2023-03-13T12:36:53.058Z,54.43
2023-03-13T12:52:22.569Z,55.10
2023-03-13T13:07:29.757Z,53.56
2023-03-13T13:22:40.269Z,51.56
2023-03-13T13:37:43.082Z,52.12
2023-03-13T13:52:45.212Z,51.46
2023-03-13T14:08:24.679Z,50.16
2023-03-13T14:23:47.479Z,49.90
2023-03-13T14:38:54.681Z,50.74
2023-03-13T14:54:02.406Z,49.92
2023-03-13T15:09:10.303Z,51.70
2023-03-13T15:24:15.127Z,54.27
2023-03-13T15:39:23.073Z,57.72
2023-03-13T15:54:24.794Z,61.56
2023-03-13T16:09:26.943Z,64.72
2023-03-13T16:24:28.734Z,61.62
2023-03-13T16:39:30.935Z,63.45
2023-03-13T16:54:32.666Z,61.67
2023-03-13T17:09:34.464Z,49.50
2023-03-13T17:24:36.102Z,43.71
2023-03-13T17:39:37.900Z,44.10
2023-03-13T17:54:39.710Z,39.87
2023-03-13T18:09:41.506Z,42.67
2023-03-13T18:24:44.157Z,46.93
2023-03-13T18:39:46.091Z,51.77
2023-03-13T18:54:48.097Z,51.97
2023-03-13T19:09:49.846Z,54.83
2023-03-13T19:24:51.556Z,55.41
2023-03-13T19:39:53.328Z,61.48
2023-03-13T19:54:55.947Z,60.02
2023-03-13T20:09:57.599Z,64.13
2023-03-13T20:24:59.613Z,66.01
2023-03-13T20:40:01.305Z,68.09
2023-03-13T20:55:03.072Z,67.69
2023-03-13T21:10:05.110Z,70.00
2023-03-13T21:25:09.058Z,70.38
2023-03-13T21:40:11.849Z,70.51
2023-03-13T21:55:13.613Z,71.83
2023-03-13T22:10:15.365Z,70.56
2023-03-13T22:25:17.142Z,70.81
2023-03-13T22:40:20.404Z,69.44
2023-03-13T22:55:22.116Z,76.14
2023-03-13T23:10:23.799Z,77.37
2023-03-13T23:25:25.569Z,74.57
2023-03-13T23:40:28.336Z,77.92
2023-03-13T23:55:30.045Z,77.44
